createdAt,value
2022-10-13T00:00:13.356Z,71.44
2022-10-13T00:02:39.729Z,71.89
2022-10-13T00:05:06.101Z,71.80
2022-10-13T00:07:32.483Z,71.76
2022-10-13T00:09:58.831Z,73.03
2022-10-13T00:12:25.192Z,73.22
2022-10-13T00:14:51.569Z,74.51
2022-10-13T00:17:17.925Z,74.83
2022-10-13T00:19:44.290Z,76.20
2022-10-13T00:22:10.666Z,75.35
2022-10-13T00:24:37.037Z,74.79
2022-10-13T00:27:03.409Z,75.12
2022-10-13T00:29:29.759Z,73.63
2022-10-13T00:31:56.117Z,73.36
2022-10-13T00:34:22.477Z,73.19
2022-10-13T00:36:48.841Z,72.58
2022-10-13T00:39:15.211Z,72.36
2022-10-13T00:41:41.573Z,72.01
2022-10-13T00:44:07.940Z,71.81
2022-10-13T00:46:34.313Z,71.72
2022-10-13T00:49:00.665Z,71.40
2022-10-13T00:51:27.041Z,71.09
2022-10-13T00:53:53.401Z,71.01
2022-10-13T00:56:19.751Z,70.93
2022-10-13T00:58:46.112Z,70.66
2022-10-13T01:01:12.500Z,70.61
2022-10-13T01:03:38.874Z,70.37
2022-10-13T01:06:05.226Z,70.07
2022-10-13T01:08:31.597Z,71.17
2022-10-13T01:10:57.946Z,71.15
2022-10-13T01:13:24.321Z,70.80
2022-10-13T01:15:50.680Z,71.63
2022-10-13T01:18:17.039Z,71.88
2022-10-13T01:20:43.406Z,72.53
2022-10-13T01:23:09.761Z,72.54
2022-10-13T01:25:36.124Z,72.88
2022-10-13T01:28:02.467Z,72.55
2022-10-13T01:30:28.836Z,71.36
2022-10-13T01:32:55.196Z,71.13
2022-10-13T01:35:21.564Z,70.43
2022-10-13T01:37:47.921Z,70.24
2022-10-13T01:40:14.296Z,70.02
2022-10-13T01:42:40.650Z,70.40
2022-10-13T01:45:07.007Z,70.00
2022-10-13T01:47:33.358Z,69.47
2022-10-13T01:49:59.833Z,69.44
2022-10-13T01:52:26.245Z,69.33
2022-10-13T01:54:52.596Z,69.49
2022-10-13T01:57:19.000Z,69.27
2022-10-13T01:59:45.361Z,69.71
2022-10-13T02:02:11.715Z,69.38
2022-10-13T02:04:38.069Z,69.47
2022-10-13T02:07:04.450Z,69.25
2022-10-13T02:09:30.799Z,69.80
2022-10-13T02:11:57.150Z,71.00
2022-10-13T02:14:23.523Z,71.49
2022-10-13T02:16:49.900Z,73.54
2022-10-13T02:19:16.246Z,75.13
2022-10-13T02:21:42.611Z,75.72
2022-10-13T02:24:08.963Z,74.53
2022-10-13T02:26:35.347Z,74.99
2022-10-13T02:29:01.716Z,76.30
2022-10-13T02:31:28.269Z,76.31
2022-10-13T02:33:54.667Z,77.29
2022-10-13T02:36:21.031Z,77.01
2022-10-13T02:38:47.387Z,76.17
2022-10-13T02:41:13.743Z,75.31
2022-10-13T02:43:40.097Z,74.71
2022-10-13T02:46:06.465Z,74.58
2022-10-13T02:48:32.823Z,76.52
2022-10-13T02:50:59.168Z,77.83
2022-10-13T02:53:25.531Z,79.15
2022-10-13T02:55:51.879Z,78.76
2022-10-13T02:58:18.257Z,79.54
2022-10-13T03:00:44.636Z,79.23
2022-10-13T03:03:11.031Z,78.50
2022-10-13T03:05:37.404Z,78.77
2022-10-13T03:08:03.760Z,79.34
2022-10-13T03:10:30.120Z,79.37
2022-10-13T03:12:56.482Z,78.76
2022-10-13T03:15:22.841Z,79.33
2022-10-13T03:17:49.189Z,79.19
2022-10-13T03:20:15.551Z,78.55
2022-10-13T03:22:43.963Z,78.39
2022-10-13T03:25:13.723Z,77.05
2022-10-13T03:27:40.103Z,76.74
2022-10-13T03:30:06.467Z,77.54
2022-10-13T03:32:32.838Z,77.27
2022-10-13T03:34:59.197Z,76.38
2022-10-13T03:37:25.560Z,76.15
2022-10-13T03:39:51.924Z,76.08
2022-10-13T03:42:18.742Z,75.58
2022-10-13T03:44:45.286Z,75.68
2022-10-13T03:47:11.641Z,75.95
2022-10-13T03:49:38.004Z,76.22
2022-10-13T03:52:04.358Z,77.33
2022-10-13T03:54:30.708Z,77.44
2022-10-13T03:56:57.080Z,78.46
2022-10-13T03:59:23.441Z,77.76
2022-10-13T04:01:49.847Z,77.99
2022-10-13T04:04:16.207Z,78.75
2022-10-13T04:06:42.566Z,78.62
2022-10-13T04:09:08.946Z,78.29
2022-10-13T04:11:35.296Z,77.87
2022-10-13T04:14:01.672Z,77.73
2022-10-13T04:16:28.019Z,78.14
2022-10-13T04:18:54.359Z,77.76
2022-10-13T04:21:20.719Z,77.57
2022-10-13T04:23:47.081Z,76.69
2022-10-13T04:26:13.445Z,77.47
2022-10-13T04:28:39.868Z,78.03
2022-10-13T04:31:06.279Z,77.19
2022-10-13T04:33:32.653Z,76.93
2022-10-13T04:35:58.998Z,76.87
2022-10-13T04:38:25.370Z,76.68
2022-10-13T04:40:51.720Z,77.90
2022-10-13T04:43:18.094Z,77.71
2022-10-13T04:45:44.475Z,77.04
2022-10-13T04:48:10.851Z,76.36
2022-10-13T04:50:37.216Z,77.33
2022-10-13T04:53:03.575Z,77.84
2022-10-13T04:55:29.943Z,77.22
2022-10-13T04:57:56.290Z,77.45
2022-10-13T05:00:22.719Z,78.39
2022-10-13T05:02:49.087Z,78.22
2022-10-13T05:05:15.458Z,78.32
2022-10-13T05:07:41.815Z,78.05
2022-10-13T05:10:08.162Z,77.65
2022-10-13T05:12:34.520Z,78.14
2022-10-13T05:15:00.885Z,79.09
2022-10-13T05:17:29.759Z,80.06
2022-10-13T05:19:59.196Z,78.85
2022-10-13T05:22:25.551Z,79.00
2022-10-13T05:24:51.905Z,79.12
2022-10-13T05:27:18.269Z,78.59
2022-10-13T05:29:44.634Z,77.83
2022-10-13T05:32:10.982Z,76.48
2022-10-13T05:34:37.356Z,76.01
2022-10-13T05:37:03.727Z,75.62
2022-10-13T05:39:30.145Z,75.13
2022-10-13T05:41:56.491Z,74.92
2022-10-13T05:44:22.830Z,74.41
2022-10-13T05:46:49.195Z,74.93
2022-10-13T05:49:15.549Z,74.50
2022-10-13T05:51:41.925Z,74.73
2022-10-13T05:54:08.264Z,75.80
2022-10-13T05:56:34.627Z,75.14
2022-10-13T05:59:01.166Z,74.78
2022-10-13T06:01:27.580Z,75.52
2022-10-13T06:03:53.975Z,74.26
2022-10-13T06:06:20.339Z,74.04
2022-10-13T06:08:46.700Z,73.63
2022-10-13T06:11:13.057Z,73.62
2022-10-13T06:13:39.429Z,73.39
2022-10-13T06:16:05.775Z,73.30
2022-10-13T06:18:32.133Z,72.98
2022-10-13T06:20:58.509Z,72.66
2022-10-13T06:23:24.855Z,72.69
2022-10-13T06:25:51.234Z,72.22
2022-10-13T06:28:17.628Z,70.97
2022-10-13T06:30:43.988Z,70.28
2022-10-13T06:33:10.339Z,69.33
2022-10-13T06:35:36.689Z,68.93
2022-10-13T06:38:03.042Z,68.82
2022-10-13T06:40:29.395Z,69.31
2022-10-13T06:42:55.748Z,69.68
2022-10-13T06:45:22.101Z,69.58
2022-10-13T06:47:48.457Z,70.09
2022-10-13T06:50:14.852Z,69.97
2022-10-13T06:52:41.195Z,70.33
2022-10-13T06:55:07.573Z,71.63
2022-10-13T06:57:33.931Z,72.19
2022-10-13T07:00:00.291Z,72.04
2022-10-13T07:02:26.647Z,71.72
2022-10-13T07:04:53.023Z,71.25
2022-10-13T07:07:19.386Z,71.08
2022-10-13T07:09:45.740Z,70.67
2022-10-13T07:12:12.100Z,69.82
2022-10-13T07:14:40.482Z,70.38
2022-10-13T07:17:10.019Z,69.79
2022-10-13T07:19:36.394Z,69.49
2022-10-13T07:22:02.857Z,68.79
2022-10-13T07:24:29.210Z,69.93
2022-10-13T07:26:55.564Z,71.47
2022-10-13T07:29:21.931Z,70.60
2022-10-13T07:31:48.289Z,71.24
2022-10-13T07:34:14.662Z,70.72
2022-10-13T07:36:41.001Z,70.02
2022-10-13T07:39:07.354Z,69.89
2022-10-13T07:41:33.727Z,69.35
2022-10-13T07:44:00.094Z,69.59
2022-10-13T07:46:26.457Z,68.05
2022-10-13T07:48:52.813Z,66.35
2022-10-13T07:51:19.179Z,67.93
2022-10-13T07:53:45.519Z,68.36
2022-10-13T07:56:11.923Z,67.50
2022-10-13T07:58:38.264Z,66.78
2022-10-13T08:01:04.621Z,65.50
2022-10-13T08:03:31.026Z,65.44
2022-10-13T08:05:57.389Z,64.36
2022-10-13T08:08:23.742Z,64.12
2022-10-13T08:10:50.157Z,64.95
2022-10-13T08:13:16.545Z,64.90
2022-10-13T08:15:42.898Z,64.47
2022-10-13T08:18:09.292Z,64.67
2022-10-13T08:20:41.416Z,64.66
2022-10-13T08:23:10.025Z,65.37
2022-10-13T08:25:36.382Z,66.13
2022-10-13T08:28:02.754Z,67.84
2022-10-13T08:30:29.219Z,67.30
2022-10-13T08:32:55.613Z,66.57
2022-10-13T08:35:21.968Z,65.36
2022-10-13T08:37:48.321Z,65.82
2022-10-13T08:40:14.676Z,64.79
2022-10-13T08:42:41.041Z,64.08
2022-10-13T08:45:40.359Z,63.97
2022-10-13T08:47:53.741Z,63.89
2022-10-13T08:50:20.093Z,63.96
2022-10-13T08:52:46.434Z,63.36
2022-10-13T08:55:12.840Z,63.39
2022-10-13T08:57:39.204Z,61.72
2022-10-13T09:00:05.558Z,61.48
2022-10-13T09:02:31.907Z,60.75
2022-10-13T09:04:58.269Z,61.03
2022-10-13T09:07:24.642Z,62.20
2022-10-13T09:09:50.981Z,62.33
2022-10-13T09:12:17.512Z,63.37
2022-10-13T09:14:44.092Z,64.59
2022-10-13T09:17:10.495Z,65.01
2022-10-13T09:19:36.895Z,64.72
2022-10-13T09:22:03.256Z,63.71
2022-10-13T09:24:29.606Z,64.08
2022-10-13T09:26:55.955Z,64.13
2022-10-13T09:29:22.309Z,64.48
2022-10-13T09:31:48.665Z,65.35
2022-10-13T09:34:15.025Z,63.57
2022-10-13T09:36:41.365Z,63.96
2022-10-13T09:39:07.721Z,64.02
2022-10-13T09:41:34.068Z,64.81
2022-10-13T09:44:00.429Z,66.52
2022-10-13T09:46:26.778Z,65.88
2022-10-13T09:48:53.147Z,66.13
2022-10-13T09:51:19.574Z,66.35
2022-10-13T09:53:45.924Z,65.81
2022-10-13T09:56:12.277Z,66.92
2022-10-13T09:58:38.659Z,66.80
2022-10-13T10:01:05.057Z,66.73
2022-10-13T10:03:31.419Z,66.45
2022-10-13T10:05:57.855Z,66.01
2022-10-13T10:08:33.277Z,66.00
2022-10-13T10:11:05.303Z,66.21
2022-10-13T10:13:31.654Z,66.48
2022-10-13T10:15:58.016Z,65.39
2022-10-13T10:18:24.373Z,65.59
2022-10-13T10:20:50.743Z,65.10
2022-10-13T10:23:17.159Z,64.96
2022-10-13T10:25:43.521Z,64.61
2022-10-13T10:28:09.903Z,64.07
2022-10-13T10:30:36.289Z,64.25
2022-10-13T10:33:02.651Z,65.26
2022-10-13T10:35:29.003Z,65.55
2022-10-13T10:37:55.357Z,64.60
2022-10-13T10:40:21.938Z,64.23
2022-10-13T10:42:51.989Z,64.27
2022-10-13T10:45:18.775Z,63.94
2022-10-13T10:47:45.122Z,62.16
2022-10-13T10:50:11.536Z,62.75
2022-10-13T10:52:37.947Z,63.50
2022-10-13T10:55:04.316Z,63.92
2022-10-13T10:57:30.670Z,63.54
2022-10-13T10:59:57.084Z,63.81
2022-10-13T11:02:23.560Z,63.46
2022-10-13T11:04:49.956Z,62.30
2022-10-13T11:07:16.300Z,61.98
2022-10-13T11:09:42.677Z,61.64
2022-10-13T11:12:09.055Z,61.70
2022-10-13T11:14:35.487Z,61.17
2022-10-13T11:17:01.881Z,63.35
2022-10-13T11:19:28.244Z,62.56
2022-10-13T11:21:54.617Z,62.06
2022-10-13T11:24:20.985Z,62.85
2022-10-13T11:26:47.369Z,63.11
2022-10-13T11:29:13.741Z,61.54
2022-10-13T11:31:40.112Z,61.47
2022-10-13T11:34:06.482Z,62.43
2022-10-13T11:36:32.837Z,62.08
2022-10-13T11:38:59.189Z,62.76
2022-10-13T11:41:25.563Z,62.33
2022-10-13T11:43:51.949Z,61.82
2022-10-13T11:46:18.305Z,61.95
2022-10-13T11:48:44.668Z,61.69
2022-10-13T11:51:13.900Z,61.82
2022-10-13T11:53:42.659Z,62.97
2022-10-13T11:56:09.034Z,63.62
2022-10-13T11:58:35.401Z,65.12
2022-10-13T12:01:01.784Z,65.26
2022-10-13T12:03:28.158Z,64.75
2022-10-13T12:05:54.519Z,63.75
2022-10-13T12:08:20.900Z,64.13
2022-10-13T12:10:47.243Z,64.82
2022-10-13T12:13:13.599Z,64.87
2022-10-13T12:15:39.989Z,65.08
2022-10-13T12:18:06.364Z,64.40
2022-10-13T12:20:32.727Z,64.43
2022-10-13T12:22:59.096Z,64.68
2022-10-13T12:25:25.461Z,64.73
2022-10-13T12:27:51.843Z,65.10
2022-10-13T12:30:18.225Z,65.78
2022-10-13T12:32:44.588Z,66.27
2022-10-13T12:35:10.971Z,66.90
2022-10-13T12:37:37.340Z,65.94
2022-10-13T12:40:03.710Z,66.35
2022-10-13T12:42:30.066Z,65.62
2022-10-13T12:44:56.432Z,66.10
2022-10-13T12:47:22.843Z,65.91
2022-10-13T12:49:49.192Z,65.39
2022-10-13T12:52:15.635Z,65.49
2022-10-13T12:54:41.994Z,64.08
2022-10-13T12:57:08.348Z,62.20
2022-10-13T12:59:34.807Z,61.74
2022-10-13T13:02:01.147Z,59.86
2022-10-13T13:04:27.509Z,60.15
2022-10-13T13:06:53.873Z,61.34
2022-10-13T13:09:20.219Z,63.47
2022-10-13T13:11:46.635Z,62.48
2022-10-13T13:14:13.000Z,64.53
2022-10-13T13:16:39.405Z,65.17
2022-10-13T13:19:05.785Z,65.07
2022-10-13T13:21:32.178Z,66.01
2022-10-13T13:23:59.455Z,65.31
2022-10-13T13:26:27.719Z,63.81
2022-10-13T13:28:54.096Z,62.42
2022-10-13T13:31:20.464Z,60.82
2022-10-13T13:33:46.829Z,59.86
2022-10-13T13:36:13.183Z,60.65
2022-10-13T13:38:39.529Z,60.18
2022-10-13T13:41:05.890Z,61.07
2022-10-13T13:43:32.260Z,60.10
2022-10-13T13:45:58.616Z,59.90
2022-10-13T13:48:25.008Z,59.52
2022-10-13T13:50:51.372Z,59.72
2022-10-13T13:53:17.720Z,60.79
2022-10-13T13:55:44.183Z,61.62
2022-10-13T13:58:10.569Z,61.73
2022-10-13T14:00:36.956Z,63.49
2022-10-13T14:03:03.376Z,63.47
2022-10-13T14:05:29.733Z,62.59
2022-10-13T14:07:56.075Z,62.91
2022-10-13T14:10:22.537Z,63.68
2022-10-13T14:12:48.908Z,64.10
2022-10-13T14:15:15.279Z,64.56
2022-10-13T14:17:41.648Z,66.52
2022-10-13T14:20:08.011Z,65.57
2022-10-13T14:22:34.368Z,65.73
2022-10-13T14:25:00.732Z,65.78
2022-10-13T14:27:27.111Z,65.52
2022-10-13T14:29:53.484Z,65.52
2022-10-13T14:32:20.094Z,64.81
2022-10-13T14:34:46.594Z,65.09
2022-10-13T14:37:12.955Z,64.10
2022-10-13T14:39:39.297Z,64.67
2022-10-13T14:42:08.683Z,65.12
2022-10-13T14:44:35.155Z,65.45
2022-10-13T14:47:01.510Z,65.12
2022-10-13T14:49:27.869Z,64.79
2022-10-13T14:51:54.245Z,64.93
2022-10-13T14:54:20.616Z,64.08
2022-10-13T14:56:46.965Z,64.77
2022-10-13T14:59:13.326Z,64.53
2022-10-13T15:01:39.683Z,64.69
2022-10-13T15:04:06.069Z,65.02
2022-10-13T15:06:32.436Z,64.61
2022-10-13T15:08:58.848Z,64.37
2022-10-13T15:11:25.376Z,64.18
2022-10-13T15:13:51.741Z,64.08
2022-10-13T15:16:18.095Z,64.18
2022-10-13T15:18:44.460Z,64.00
2022-10-13T15:21:10.837Z,63.72
2022-10-13T15:23:37.199Z,63.63
2022-10-13T15:26:03.572Z,63.69
2022-10-13T15:28:29.989Z,64.18
2022-10-13T15:30:56.366Z,64.07
2022-10-13T15:33:22.836Z,65.21
2022-10-13T15:35:49.191Z,65.25
2022-10-13T15:38:15.555Z,65.32
2022-10-13T15:40:41.934Z,65.35
2022-10-13T15:43:08.291Z,65.14
2022-10-13T15:45:34.659Z,64.97
2022-10-13T15:48:03.910Z,64.92
2022-10-13T15:50:30.331Z,65.32
2022-10-13T15:52:56.768Z,64.53
2022-10-13T15:55:23.123Z,65.14
2022-10-13T15:57:49.577Z,64.94
2022-10-13T16:00:15.932Z,64.89
2022-10-13T16:02:42.296Z,65.31
2022-10-13T16:05:08.677Z,65.62
2022-10-13T16:07:35.025Z,65.96
2022-10-13T16:10:01.404Z,65.80
2022-10-13T16:12:27.787Z,66.35
2022-10-13T16:14:54.152Z,66.91
2022-10-13T16:17:20.522Z,67.02
2022-10-13T16:19:46.901Z,66.47
2022-10-13T16:22:13.274Z,66.54
2022-10-13T16:24:39.645Z,66.98
2022-10-13T16:27:06.002Z,67.06
2022-10-13T16:29:32.359Z,67.36
2022-10-13T16:31:58.719Z,66.95
2022-10-13T16:34:25.081Z,67.24
2022-10-13T16:36:51.444Z,67.17
2022-10-13T16:39:17.788Z,66.88
2022-10-13T16:41:44.155Z,66.82
2022-10-13T16:44:10.536Z,66.47
2022-10-13T16:46:36.902Z,66.66
2022-10-13T16:49:03.263Z,67.17
2022-10-13T16:51:29.631Z,67.72
2022-10-13T16:53:59.823Z,67.23
2022-10-13T16:56:29.254Z,67.25
2022-10-13T16:58:55.621Z,67.25
2022-10-13T17:01:21.987Z,67.18
2022-10-13T17:03:48.355Z,68.53
2022-10-13T17:06:14.718Z,68.81
2022-10-13T17:08:41.081Z,68.63
2022-10-13T17:11:07.459Z,69.43
2022-10-13T17:13:33.836Z,69.69
2022-10-13T17:16:00.206Z,69.82
2022-10-13T17:18:26.581Z,69.17
2022-10-13T17:20:52.948Z,68.74
2022-10-13T17:23:19.329Z,68.28
2022-10-13T17:25:45.691Z,68.05
2022-10-13T17:28:12.121Z,67.77
2022-10-13T17:30:38.486Z,67.62
2022-10-13T17:33:04.853Z,67.71
2022-10-13T17:35:31.223Z,68.76
2022-10-13T17:37:57.585Z,69.03
2022-10-13T17:40:23.950Z,68.62
2022-10-13T17:42:50.340Z,68.48
2022-10-13T17:45:16.764Z,68.28
2022-10-13T17:47:43.116Z,67.87
2022-10-13T17:50:09.495Z,68.41
2022-10-13T17:52:35.929Z,69.27
2022-10-13T17:55:02.313Z,69.27
2022-10-13T17:57:28.676Z,69.58
2022-10-13T17:59:55.021Z,69.53
2022-10-13T18:02:21.380Z,69.86
2022-10-13T18:04:47.740Z,69.28
2022-10-13T18:07:14.137Z,68.90
2022-10-13T18:09:40.485Z,68.89
2022-10-13T18:12:06.874Z,68.88
2022-10-13T18:14:33.244Z,67.58
2022-10-13T18:16:59.615Z,67.70
2022-10-13T18:19:25.965Z,67.51
2022-10-13T18:21:52.359Z,68.46
2022-10-13T18:24:18.737Z,68.78
2022-10-13T18:26:45.099Z,68.83
2022-10-13T18:29:11.451Z,68.94
2022-10-13T18:31:37.862Z,69.68
2022-10-13T18:34:04.319Z,69.75
2022-10-13T18:36:30.677Z,70.38
2022-10-13T18:38:57.023Z,70.10
2022-10-13T18:41:23.388Z,70.69
2022-10-13T18:43:49.735Z,70.93
2022-10-13T18:46:16.107Z,70.86
2022-10-13T18:48:42.475Z,71.34
2022-10-13T18:51:08.876Z,71.24
2022-10-13T18:53:35.246Z,71.48
2022-10-13T18:56:01.609Z,71.53
2022-10-13T18:58:27.979Z,71.85
2022-10-13T19:00:54.377Z,71.77
2022-10-13T19:03:20.834Z,71.29
2022-10-13T19:05:47.191Z,71.47
2022-10-13T19:08:13.571Z,72.78
2022-10-13T19:10:39.931Z,72.95
2022-10-13T19:13:06.302Z,73.44
2022-10-13T19:15:32.689Z,73.10
2022-10-13T19:17:59.061Z,72.58
2022-10-13T19:20:25.437Z,72.45
2022-10-13T19:22:51.810Z,72.37
2022-10-13T19:25:18.188Z,71.98
2022-10-13T19:27:44.540Z,72.47
2022-10-13T19:30:10.899Z,73.21
2022-10-13T19:32:37.276Z,72.46
2022-10-13T19:35:03.661Z,72.05
2022-10-13T19:37:30.009Z,72.97
2022-10-13T19:39:56.402Z,73.27
2022-10-13T19:42:22.752Z,73.14
2022-10-13T19:44:50.421Z,73.07
2022-10-13T19:47:16.800Z,72.79
2022-10-13T19:49:43.168Z,72.77
2022-10-13T19:52:09.563Z,73.02
2022-10-13T19:54:35.927Z,71.58
2022-10-13T19:57:02.275Z,71.95
2022-10-13T19:59:28.620Z,71.37
2022-10-13T20:01:54.973Z,70.60
2022-10-13T20:04:21.332Z,70.13
2022-10-13T20:06:48.567Z,69.99
2022-10-13T20:09:14.909Z,70.02
2022-10-13T20:11:41.271Z,69.19
2022-10-13T20:14:07.637Z,69.06
2022-10-13T20:16:33.990Z,69.05
2022-10-13T20:19:00.359Z,69.26
2022-10-13T20:21:26.709Z,68.92
2022-10-13T20:23:53.086Z,68.79
2022-10-13T20:26:19.464Z,68.80
2022-10-13T20:28:45.846Z,68.45
2022-10-13T20:31:12.257Z,68.54
2022-10-13T20:33:38.622Z,68.68
2022-10-13T20:36:04.988Z,68.90
2022-10-13T20:38:31.338Z,67.85
2022-10-13T20:40:57.681Z,68.22
2022-10-13T20:43:25.851Z,68.27
2022-10-13T20:45:52.418Z,68.36
2022-10-13T20:48:18.781Z,67.27
2022-10-13T20:50:45.121Z,68.61
2022-10-13T20:53:11.485Z,69.62
2022-10-13T20:55:41.708Z,69.78
2022-10-13T20:58:08.398Z,69.81
2022-10-13T21:00:34.805Z,69.05
2022-10-13T21:03:02.291Z,69.09
2022-10-13T21:05:28.779Z,69.26
2022-10-13T21:07:55.121Z,69.86
2022-10-13T21:10:25.870Z,69.13
2022-10-13T21:12:52.237Z,69.18
2022-10-13T21:15:18.580Z,69.65
2022-10-13T21:17:44.948Z,69.99
2022-10-13T21:20:11.317Z,69.92
2022-10-13T21:22:37.691Z,70.01
2022-10-13T21:25:04.047Z,69.82
2022-10-13T21:27:30.388Z,69.20
2022-10-13T21:29:56.742Z,69.21
2022-10-13T21:32:23.092Z,69.37
2022-10-13T21:34:49.477Z,69.23
2022-10-13T21:37:15.865Z,69.74
2022-10-13T21:39:42.265Z,69.09
2022-10-13T21:42:08.625Z,69.22
2022-10-13T21:44:35.002Z,68.83
2022-10-13T21:47:01.369Z,68.94
2022-10-13T21:49:27.745Z,68.94
2022-10-13T21:51:54.102Z,68.57
2022-10-13T21:54:20.469Z,69.15
2022-10-13T21:56:46.823Z,69.18
2022-10-13T21:59:13.165Z,69.16
2022-10-13T22:01:39.519Z,69.54
2022-10-13T22:04:05.885Z,69.72
2022-10-13T22:06:32.260Z,69.74
2022-10-13T22:08:58.631Z,69.57
2022-10-13T22:11:24.984Z,69.76
2022-10-13T22:13:51.344Z,69.67
2022-10-13T22:16:17.722Z,69.46
2022-10-13T22:18:44.089Z,69.30
2022-10-13T22:21:10.452Z,69.13
2022-10-13T22:23:36.794Z,70.23
2022-10-13T22:26:03.165Z,71.70
2022-10-13T22:28:33.452Z,71.74
2022-10-13T22:31:02.525Z,72.20
2022-10-13T22:33:28.875Z,72.16
2022-10-13T22:35:55.254Z,71.77
2022-10-13T22:38:21.622Z,71.25
2022-10-13T22:40:47.964Z,71.07
2022-10-13T22:43:14.316Z,70.68
2022-10-13T22:45:40.677Z,70.77
2022-10-13T22:48:07.035Z,70.50
2022-10-13T22:50:33.399Z,70.21
2022-10-13T22:52:59.753Z,71.20
2022-10-13T22:55:26.115Z,70.96
2022-10-13T22:57:52.460Z,71.17
2022-10-13T23:00:18.815Z,70.79
2022-10-13T23:02:45.165Z,71.11
2022-10-13T23:05:11.524Z,71.40
2022-10-13T23:07:37.884Z,71.89
2022-10-13T23:10:04.269Z,72.17
2022-10-13T23:12:30.616Z,72.44
2022-10-13T23:14:56.985Z,72.51
2022-10-13T23:17:23.806Z,73.23
2022-10-13T23:19:50.383Z,73.84
2022-10-13T23:22:16.748Z,74.03
2022-10-13T23:24:43.104Z,73.84
2022-10-13T23:27:09.484Z,73.30
2022-10-13T23:29:35.823Z,73.20
2022-10-13T23:32:05.086Z,73.09
2022-10-13T23:34:33.837Z,72.95
2022-10-13T23:37:00.192Z,73.90
2022-10-13T23:39:26.560Z,73.85
2022-10-13T23:41:52.905Z,73.30
2022-10-13T23:44:19.278Z,73.55
2022-10-13T23:46:45.633Z,73.75
2022-10-13T23:49:11.984Z,74.21
2022-10-13T23:51:38.354Z,74.46
2022-10-13T23:54:04.713Z,74.98
2022-10-13T23:56:31.066Z,74.96
2022-10-13T23:58:57.409Z,74.82
